createdAt,value
2019-03-20T00:02:20.894Z,0.20
2019-03-20T00:04:50.200Z,0.20
2019-03-20T00:07:18.754Z,0.20
2019-03-20T00:09:47.300Z,0.20
2019-03-20T00:12:15.767Z,0.20
2019-03-20T00:14:44.274Z,0.10
2019-03-20T00:17:12.773Z,0.20
2019-03-20T00:19:41.254Z,0.10
2019-03-20T00:22:09.688Z,0.10
2019-03-20T00:24:38.165Z,0.10
2019-03-20T00:27:06.623Z,0.10
2019-03-20T00:29:35.090Z,0.10
2019-03-20T00:32:04.582Z,0.10
2019-03-20T00:34:33.043Z,0.10
2019-03-20T00:37:01.478Z,0.00
2019-03-20T00:39:29.957Z,-0.10
2019-03-20T00:41:58.465Z,-0.20
2019-03-20T00:44:26.961Z,-0.40
2019-03-20T00:46:55.434Z,-0.40
2019-03-20T00:49:23.913Z,-0.40
2019-03-20T00:51:52.413Z,-0.50
2019-03-20T00:54:20.878Z,-0.50
2019-03-20T00:56:49.316Z,-0.50
2019-03-20T00:59:17.780Z,-0.60
2019-03-20T01:01:46.279Z,-0.70
2019-03-20T01:04:14.767Z,-0.80
2019-03-20T01:06:43.312Z,-0.90
2019-03-20T01:09:11.851Z,-1.00
2019-03-20T01:11:40.310Z,-1.00
2019-03-20T01:14:08.759Z,-1.10
2019-03-20T01:16:37.253Z,-1.10
2019-03-20T01:19:05.734Z,-1.10
2019-03-20T01:21:34.230Z,-1.10
2019-03-20T01:24:02.788Z,-1.10
2019-03-20T01:26:31.350Z,-1.10
2019-03-20T01:28:59.886Z,-1.20
2019-03-20T01:31:28.398Z,-1.30
2019-03-20T01:33:56.842Z,-1.30
2019-03-20T01:36:25.347Z,-1.30
2019-03-20T01:38:53.893Z,-1.40
2019-03-20T01:41:23.035Z,-1.40
2019-03-20T01:43:51.507Z,-1.50
2019-03-20T01:46:20.003Z,-1.60
2019-03-20T01:48:48.478Z,-1.60
2019-03-20T01:51:21.551Z,-1.60
2019-03-20T01:53:50.121Z,-1.60
2019-03-20T01:56:18.597Z,-1.60
2019-03-20T01:58:48.361Z,-1.60
2019-03-20T02:01:16.803Z,-1.60
2019-03-20T02:03:45.298Z,-1.70
2019-03-20T02:06:13.926Z,-1.70
2019-03-20T02:08:42.392Z,-1.80
2019-03-20T02:11:10.864Z,-1.80
2019-03-20T02:13:39.363Z,-1.70
2019-03-20T02:16:07.825Z,-1.70
2019-03-20T02:18:36.331Z,-1.60
2019-03-20T02:21:04.958Z,-1.60
2019-03-20T02:23:33.514Z,-1.70
2019-03-20T02:26:02.067Z,-1.60
2019-03-20T02:28:30.538Z,-1.70
2019-03-20T02:30:59.039Z,-1.80
2019-03-20T02:33:27.509Z,-1.80
2019-03-20T02:35:55.943Z,-1.80
2019-03-20T02:38:24.470Z,-1.80
2019-03-20T02:40:52.963Z,-1.70
2019-03-20T02:43:21.525Z,-1.70
2019-03-20T02:45:50.019Z,-1.80
2019-03-20T02:48:18.483Z,-1.80
2019-03-20T02:50:46.999Z,-1.80
2019-03-20T02:53:15.440Z,-1.90
2019-03-20T02:55:43.898Z,-2.00
2019-03-20T02:58:12.376Z,-2.00
2019-03-20T03:00:40.853Z,-2.10
2019-03-20T03:03:09.391Z,-2.10
2019-03-20T03:05:39.113Z,-2.00
2019-03-20T03:08:07.559Z,-1.90
2019-03-20T03:10:36.199Z,-2.10
2019-03-20T03:13:04.750Z,-2.10
2019-03-20T03:15:33.301Z,-2.20
2019-03-20T03:18:01.730Z,-2.20
2019-03-20T03:20:30.239Z,-2.20
2019-03-20T03:22:58.712Z,-2.20
2019-03-20T03:25:27.253Z,-2.20
2019-03-20T03:27:55.701Z,-2.20
2019-03-20T03:30:24.198Z,-2.40
2019-03-20T03:32:52.785Z,-2.30
2019-03-20T03:35:21.323Z,-2.30
2019-03-20T03:37:49.864Z,-2.30
2019-03-20T03:40:19.846Z,-2.40
2019-03-20T03:42:48.334Z,-2.40
2019-03-20T03:45:17.477Z,-2.40
2019-03-20T03:47:46.312Z,-2.40
2019-03-20T03:50:15.148Z,-2.50
2019-03-20T03:52:43.817Z,-2.50
2019-03-20T03:55:13.490Z,-2.50
2019-03-20T03:57:43.293Z,-2.50
2019-03-20T04:00:19.725Z,-2.50
2019-03-20T04:02:48.309Z,-2.60
2019-03-20T04:05:16.762Z,-2.50
2019-03-20T04:07:45.255Z,-2.50
2019-03-20T04:10:15.358Z,-2.50
2019-03-20T04:12:43.874Z,-2.50
2019-03-20T04:15:13.885Z,-2.50
2019-03-20T04:17:42.529Z,-2.40
2019-03-20T04:20:18.993Z,-2.40
2019-03-20T04:22:47.578Z,-2.60
2019-03-20T04:25:16.195Z,-2.70
2019-03-20T04:27:44.775Z,-2.80
2019-03-20T04:30:20.357Z,-2.90
2019-03-20T04:32:48.858Z,-2.90
2019-03-20T04:35:17.312Z,-2.90
2019-03-20T04:37:45.847Z,-3.00
2019-03-20T04:40:15.588Z,-3.10
2019-03-20T04:42:44.093Z,-3.10
2019-03-20T04:45:13.723Z,-3.10
2019-03-20T04:47:42.212Z,-3.00
2019-03-20T04:50:12.054Z,-3.10
2019-03-20T04:52:40.602Z,-3.10
2019-03-20T04:55:09.530Z,-3.10
2019-03-20T04:57:38.039Z,-3.10
2019-03-20T05:00:23.568Z,-3.10
2019-03-20T05:02:52.066Z,-3.10
2019-03-20T05:05:20.572Z,-3.00
2019-03-20T05:07:49.012Z,-3.00
2019-03-20T05:10:20.626Z,-3.00
2019-03-20T05:12:49.226Z,-3.00
2019-03-20T05:15:17.697Z,-2.90
2019-03-20T05:17:46.131Z,-2.90
2019-03-20T05:20:16.051Z,-2.90
2019-03-20T05:22:44.578Z,-2.90
2019-03-20T05:25:13.238Z,-2.90
2019-03-20T05:27:41.762Z,-2.90
2019-03-20T05:30:13.125Z,-2.90
2019-03-20T05:32:41.640Z,-2.90
2019-03-20T05:35:10.238Z,-2.90
2019-03-20T05:37:38.744Z,-2.90
2019-03-20T05:40:10.299Z,-2.80
2019-03-20T05:42:38.742Z,-2.70
2019-03-20T05:45:10.146Z,-2.70
2019-03-20T05:47:38.674Z,-2.70
2019-03-20T05:50:09.884Z,-2.50
2019-03-20T05:52:38.483Z,-2.40
2019-03-20T05:55:08.055Z,-2.40
2019-03-20T05:57:36.570Z,-2.20
2019-03-20T06:00:10.789Z,-2.10
2019-03-20T06:02:39.312Z,-2.00
2019-03-20T06:05:08.488Z,-2.00
2019-03-20T06:07:37.043Z,-1.80
2019-03-20T06:10:16.024Z,-1.70
2019-03-20T06:12:44.526Z,-1.70
2019-03-20T06:15:14.226Z,-1.10
2019-03-20T06:17:42.765Z,0.30
2019-03-20T06:20:12.600Z,2.00
2019-03-20T06:22:41.081Z,3.40
2019-03-20T06:25:11.299Z,5.00
2019-03-20T06:27:39.861Z,5.50
2019-03-20T06:30:13.920Z,5.90
2019-03-20T06:32:42.518Z,6.40
2019-03-20T06:35:11.346Z,7.30
2019-03-20T06:37:39.878Z,8.60
2019-03-20T06:40:10.554Z,9.40
2019-03-20T06:42:39.122Z,9.50
2019-03-20T06:45:15.160Z,9.60
2019-03-20T06:47:43.675Z,10.10
2019-03-20T06:50:15.031Z,10.70
2019-03-20T06:52:43.502Z,10.60
2019-03-20T06:55:12.078Z,11.40
2019-03-20T06:57:40.731Z,12.00
2019-03-20T07:00:30.274Z,12.30
2019-03-20T07:03:00.201Z,12.60
2019-03-20T07:05:31.784Z,12.80
2019-03-20T07:08:03.218Z,12.70
2019-03-20T07:10:55.874Z,12.80
2019-03-20T07:13:24.415Z,13.20
2019-03-20T07:15:52.893Z,13.10
2019-03-20T07:18:21.360Z,13.20
2019-03-20T07:20:49.811Z,13.80
2019-03-20T07:23:18.363Z,13.70
2019-03-20T07:25:46.875Z,13.30
2019-03-20T07:28:15.370Z,13.70
2019-03-20T07:30:43.847Z,14.10
2019-03-20T07:33:12.351Z,13.50
2019-03-20T07:35:40.827Z,13.90
2019-03-20T07:38:09.313Z,14.00
2019-03-20T07:40:37.754Z,14.40
2019-03-20T07:43:09.125Z,14.30
2019-03-20T07:45:36.482Z,14.20
2019-03-20T07:48:05.033Z,14.60
2019-03-20T07:50:33.799Z,15.20
2019-03-20T07:53:02.331Z,15.00
2019-03-20T07:55:30.827Z,15.30
2019-03-20T07:57:59.355Z,16.00
2019-03-20T08:00:27.822Z,16.20
2019-03-20T08:02:56.261Z,16.50
2019-03-20T08:05:29.108Z,16.50
2019-03-20T08:07:54.913Z,16.80
2019-03-20T08:10:23.486Z,17.00
2019-03-20T08:12:51.944Z,17.10
2019-03-20T08:15:20.401Z,17.10
2019-03-20T08:17:48.861Z,16.80
2019-03-20T08:20:23.011Z,17.10
2019-03-20T08:22:51.509Z,16.80
2019-03-20T08:25:19.991Z,16.30
2019-03-20T08:27:48.518Z,16.60
2019-03-20T08:30:18.241Z,17.20
2019-03-20T08:32:46.774Z,17.30
2019-03-20T08:35:15.607Z,16.10
2019-03-20T08:37:44.135Z,13.90
2019-03-20T08:40:19.421Z,12.00
2019-03-20T08:42:47.865Z,10.70
2019-03-20T08:45:18.235Z,9.80
2019-03-20T08:47:47.646Z,9.30
2019-03-20T08:50:25.975Z,9.00
2019-03-20T08:52:54.411Z,8.70
2019-03-20T08:55:22.923Z,8.30
2019-03-20T08:57:51.380Z,8.10
2019-03-20T09:00:24.571Z,8.00
2019-03-20T09:02:53.278Z,7.90
2019-03-20T09:05:21.784Z,7.80
2019-03-20T09:07:50.238Z,7.60
2019-03-20T09:10:23.515Z,7.30
2019-03-20T09:12:52.093Z,7.30
2019-03-20T09:15:21.354Z,7.50
2019-03-20T09:17:49.864Z,7.40
2019-03-20T09:20:21.937Z,7.40
2019-03-20T09:22:50.445Z,7.20
2019-03-20T09:25:23.142Z,7.10
2019-03-20T09:27:51.654Z,7.10
2019-03-20T09:30:22.332Z,7.30
2019-03-20T09:32:51.294Z,7.20
2019-03-20T09:35:19.739Z,7.10
2019-03-20T09:37:52.219Z,7.30
2019-03-20T09:40:25.695Z,7.30
2019-03-20T09:42:54.122Z,7.00
2019-03-20T09:45:23.314Z,6.80
2019-03-20T09:47:51.799Z,6.70
2019-03-20T09:50:22.463Z,6.70
2019-03-20T09:52:50.898Z,6.80
2019-03-20T09:55:19.433Z,6.90
2019-03-20T09:57:47.899Z,7.00
2019-03-20T10:00:21.554Z,6.90
2019-03-20T10:02:50.019Z,6.80
2019-03-20T10:05:18.557Z,6.90
2019-03-20T10:07:47.100Z,7.00
2019-03-20T10:10:23.187Z,7.00
2019-03-20T10:12:51.845Z,7.10
2019-03-20T10:15:21.703Z,7.10
2019-03-20T10:17:50.122Z,7.30
2019-03-20T10:20:19.982Z,7.30
2019-03-20T10:22:48.448Z,7.30
2019-03-20T10:25:17.442Z,7.40
2019-03-20T10:27:45.952Z,7.40
2019-03-20T10:30:25.206Z,7.30
2019-03-20T10:32:53.757Z,7.20
2019-03-20T10:35:22.279Z,7.00
2019-03-20T10:37:50.841Z,7.00
2019-03-20T10:40:20.925Z,7.10
2019-03-20T10:42:49.709Z,7.10
2019-03-20T10:45:20.205Z,7.20
2019-03-20T10:47:49.177Z,7.10
2019-03-20T10:50:21.466Z,7.20
2019-03-20T10:52:50.127Z,7.40
2019-03-20T10:55:18.645Z,7.40
2019-03-20T10:57:47.125Z,7.50
2019-03-20T11:00:25.956Z,7.50
2019-03-20T11:02:54.410Z,7.40
2019-03-20T11:05:22.930Z,7.30
2019-03-20T11:07:51.388Z,7.20
2019-03-20T11:10:25.619Z,7.10
2019-03-20T11:12:54.422Z,7.00
2019-03-20T11:15:24.074Z,7.10
2019-03-20T11:17:52.600Z,7.10
2019-03-20T11:20:22.279Z,7.00
2019-03-20T11:22:50.775Z,7.00
2019-03-20T11:25:21.266Z,7.00
2019-03-20T11:27:49.849Z,7.00
2019-03-20T11:30:28.650Z,7.20
2019-03-20T11:32:57.337Z,7.20
2019-03-20T11:35:26.029Z,7.20
2019-03-20T11:37:54.498Z,7.30
2019-03-20T11:40:33.368Z,7.30
2019-03-20T11:43:01.890Z,7.40
2019-03-20T11:45:30.416Z,7.40
2019-03-20T11:47:59.019Z,7.60
2019-03-20T11:50:30.544Z,7.60
2019-03-20T11:52:59.036Z,7.70
2019-03-20T11:55:27.605Z,7.80
2019-03-20T11:57:56.071Z,7.80
2019-03-20T12:00:24.700Z,7.90
2019-03-20T12:02:53.217Z,8.10
2019-03-20T12:05:21.649Z,8.10
2019-03-20T12:07:50.129Z,8.20
2019-03-20T12:10:20.779Z,8.20
2019-03-20T12:12:49.350Z,8.10
2019-03-20T12:15:17.833Z,8.10
2019-03-20T12:17:46.355Z,8.10
2019-03-20T12:20:21.993Z,8.00
2019-03-20T12:22:51.272Z,8.10
2019-03-20T12:25:33.580Z,8.20
2019-03-20T12:28:02.135Z,8.00
2019-03-20T12:30:33.672Z,8.10
2019-03-20T12:33:02.814Z,8.10
2019-03-20T12:35:45.033Z,8.20
2019-03-20T12:38:15.145Z,8.20
2019-03-20T12:40:43.765Z,8.20
2019-03-20T12:43:12.257Z,8.20
2019-03-20T12:45:41.075Z,8.10
2019-03-20T12:48:11.146Z,8.00
2019-03-20T12:50:39.685Z,7.90
2019-03-20T12:53:10.392Z,7.80
2019-03-20T12:55:38.904Z,7.90
2019-03-20T12:58:07.467Z,8.00
2019-03-20T13:00:35.927Z,7.90
2019-03-20T13:03:04.747Z,7.90
2019-03-20T13:05:33.268Z,8.00
2019-03-20T13:08:05.850Z,8.00
2019-03-20T13:10:31.986Z,8.00
2019-03-20T13:13:01.289Z,8.10
2019-03-20T13:15:29.809Z,8.20
2019-03-20T13:17:58.393Z,8.20
2019-03-20T13:20:27.382Z,8.20
2019-03-20T13:23:23.003Z,8.30
2019-03-20T13:25:51.477Z,8.20
2019-03-20T13:28:19.905Z,8.10
2019-03-20T13:31:09.785Z,8.20
2019-03-20T13:33:38.233Z,8.20
2019-03-20T13:36:06.852Z,8.30
2019-03-20T13:38:35.309Z,8.30
2019-03-20T13:41:03.764Z,8.30
2019-03-20T13:43:32.235Z,8.40
2019-03-20T13:46:00.657Z,8.30
2019-03-20T13:48:29.142Z,8.20
2019-03-20T13:50:57.595Z,8.40
2019-03-20T13:53:26.079Z,8.40
2019-03-20T13:55:54.530Z,8.40
2019-03-20T13:58:23.035Z,8.40
2019-03-20T14:00:51.462Z,8.40
2019-03-20T14:03:19.897Z,8.50
2019-03-20T14:05:48.447Z,8.50
2019-03-20T14:08:16.894Z,8.60
2019-03-20T14:10:50.430Z,8.50
2019-03-20T14:13:15.531Z,8.50
2019-03-20T14:15:43.973Z,8.50
2019-03-20T14:18:12.420Z,8.40
2019-03-20T14:20:40.891Z,8.40
2019-03-20T14:23:09.376Z,8.40
2019-03-20T14:25:37.813Z,8.50
2019-03-20T14:28:06.297Z,8.60
2019-03-20T14:30:34.913Z,8.60
2019-03-20T14:33:03.394Z,8.60
2019-03-20T14:35:31.813Z,8.50
2019-03-20T14:38:01.155Z,8.50
2019-03-20T14:40:37.647Z,8.60
2019-03-20T14:43:00.801Z,8.60
2019-03-20T14:45:29.374Z,8.60
2019-03-20T14:47:57.822Z,8.60
2019-03-20T14:50:27.115Z,8.50
2019-03-20T14:52:55.635Z,8.60
2019-03-20T14:55:24.099Z,8.60
2019-03-20T14:57:52.526Z,8.60
2019-03-20T15:00:23.605Z,8.50
2019-03-20T15:02:52.220Z,8.40
2019-03-20T15:05:20.673Z,8.50
2019-03-20T15:07:49.148Z,8.50
2019-03-20T15:10:20.125Z,8.50
2019-03-20T15:12:48.717Z,8.50
2019-03-20T15:15:29.034Z,8.60
2019-03-20T15:17:57.469Z,8.70
2019-03-20T15:20:25.949Z,8.70
2019-03-20T15:22:54.428Z,8.60
2019-03-20T15:25:22.987Z,8.60
2019-03-20T15:27:51.417Z,8.50
2019-03-20T15:30:21.598Z,8.50
2019-03-20T15:32:50.047Z,8.50
2019-03-20T15:35:18.549Z,8.50
2019-03-20T15:37:47.082Z,8.50
2019-03-20T15:40:28.410Z,8.60
2019-03-20T15:42:56.862Z,8.70
2019-03-20T15:45:25.395Z,8.60
2019-03-20T15:47:53.846Z,8.50
2019-03-20T15:50:26.518Z,8.50
2019-03-20T15:52:55.075Z,8.50
2019-03-20T15:55:28.907Z,8.50
2019-03-20T15:57:57.405Z,8.40
2019-03-20T16:00:25.996Z,8.50
2019-03-20T16:02:57.762Z,8.50
2019-03-20T16:05:26.217Z,8.40
2019-03-20T16:07:54.691Z,8.30
2019-03-20T16:10:23.490Z,8.30
2019-03-20T16:12:51.982Z,8.30
2019-03-20T16:15:21.708Z,8.20
2019-03-20T16:17:50.234Z,8.20
2019-03-20T16:20:19.059Z,8.30
2019-03-20T16:22:47.544Z,8.40
2019-03-20T16:25:20.245Z,8.30
2019-03-20T16:27:48.720Z,8.20
2019-03-20T16:30:25.328Z,8.10
2019-03-20T16:32:53.900Z,8.20
2019-03-20T16:35:23.998Z,8.10
2019-03-20T16:37:52.494Z,8.20
2019-03-20T16:40:25.241Z,8.10
2019-03-20T16:42:53.678Z,8.00
2019-03-20T16:45:27.434Z,7.90
2019-03-20T16:47:56.139Z,7.70
2019-03-20T16:50:24.605Z,7.80
2019-03-20T16:52:53.109Z,7.70
2019-03-20T16:55:21.635Z,7.70
2019-03-20T16:57:50.162Z,7.70
2019-03-20T17:00:27.754Z,7.60
2019-03-20T17:02:56.458Z,7.40
2019-03-20T17:05:26.066Z,7.20
2019-03-20T17:07:54.527Z,7.00
2019-03-20T17:10:28.914Z,6.90
2019-03-20T17:12:57.457Z,6.70
2019-03-20T17:15:31.214Z,6.40
2019-03-20T17:18:00.995Z,6.10
2019-03-20T17:20:29.574Z,6.00
2019-03-20T17:22:58.137Z,5.80
2019-03-20T17:25:26.750Z,5.60
2019-03-20T17:27:55.269Z,5.30
2019-03-20T17:30:32.521Z,5.10
2019-03-20T17:33:01.816Z,5.10
2019-03-20T17:35:30.286Z,5.10
2019-03-20T17:37:58.812Z,5.10
2019-03-20T17:40:28.071Z,5.00
2019-03-20T17:42:56.836Z,5.00
2019-03-20T17:45:26.953Z,4.90
2019-03-20T17:47:55.454Z,4.70
2019-03-20T17:50:25.734Z,4.60
2019-03-20T17:52:54.304Z,4.60
2019-03-20T17:55:22.742Z,4.40
2019-03-20T17:57:51.356Z,4.40
2019-03-20T18:00:27.345Z,4.40
2019-03-20T18:02:55.813Z,4.40
2019-03-20T18:05:24.339Z,4.50
2019-03-20T18:07:52.770Z,4.40
2019-03-20T18:10:21.554Z,4.50
2019-03-20T18:12:50.022Z,4.50
2019-03-20T18:15:18.645Z,4.40
2019-03-20T18:17:47.228Z,3.90
2019-03-20T18:20:19.730Z,3.60
2019-03-20T18:22:48.242Z,3.40
2019-03-20T18:25:16.710Z,3.10
2019-03-20T18:27:45.145Z,2.90
2019-03-20T18:30:28.373Z,2.90
2019-03-20T18:32:56.861Z,2.90
2019-03-20T18:35:25.457Z,3.00
2019-03-20T18:37:53.989Z,3.10
2019-03-20T18:40:28.549Z,3.10
2019-03-20T18:42:57.025Z,3.20
2019-03-20T18:45:28.610Z,3.20
2019-03-20T18:47:57.123Z,3.10
2019-03-20T18:50:26.227Z,2.90
2019-03-20T18:52:54.694Z,2.90
2019-03-20T18:55:23.248Z,2.80
2019-03-20T18:57:51.824Z,2.70
2019-03-20T19:00:34.391Z,2.70
2019-03-20T19:03:08.525Z,2.50
2019-03-20T19:05:45.737Z,2.30
2019-03-20T19:08:14.383Z,2.10
2019-03-20T19:10:42.955Z,2.10
2019-03-20T19:13:11.568Z,2.10
2019-03-20T19:15:40.143Z,2.10
2019-03-20T19:18:08.684Z,2.10
2019-03-20T19:20:37.150Z,2.10
2019-03-20T19:23:05.671Z,2.10
2019-03-20T19:25:34.277Z,2.10
2019-03-20T19:28:02.763Z,2.10
2019-03-20T19:30:31.363Z,2.10
2019-03-20T19:33:01.149Z,2.00
2019-03-20T19:35:29.597Z,1.70
2019-03-20T19:37:58.078Z,1.60
2019-03-20T19:40:26.655Z,1.50
2019-03-20T19:42:55.144Z,1.50
2019-03-20T19:45:23.691Z,1.40
2019-03-20T19:47:52.139Z,1.30
2019-03-20T19:50:21.995Z,1.20
2019-03-20T19:52:50.513Z,1.30
2019-03-20T19:55:39.878Z,1.30
2019-03-20T19:58:08.367Z,1.20
2019-03-20T20:00:36.807Z,1.20
2019-03-20T20:03:05.383Z,1.20
2019-03-20T20:05:33.921Z,1.20
2019-03-20T20:08:02.389Z,1.20
2019-03-20T20:10:30.886Z,1.10
2019-03-20T20:12:59.423Z,1.10
2019-03-20T20:15:30.236Z,1.10
2019-03-20T20:17:58.681Z,1.10
2019-03-20T20:20:29.650Z,1.00
2019-03-20T20:22:58.099Z,0.90
2019-03-20T20:25:26.694Z,0.90
2019-03-20T20:27:55.146Z,0.90
2019-03-20T20:30:23.626Z,0.90
2019-03-20T20:32:52.182Z,0.80
2019-03-20T20:35:20.744Z,0.70
2019-03-20T20:37:50.413Z,0.70
2019-03-20T20:40:24.567Z,0.60
2019-03-20T20:42:53.113Z,0.60
2019-03-20T20:45:21.581Z,0.40
2019-03-20T20:47:50.071Z,0.30
2019-03-20T20:50:18.585Z,0.20
2019-03-20T20:52:47.469Z,0.10
2019-03-20T20:55:23.886Z,0.10
2019-03-20T20:57:53.385Z,0.00
2019-03-20T21:00:22.719Z,-0.10
2019-03-20T21:02:51.221Z,-0.10
2019-03-20T21:05:19.754Z,0.00
2019-03-20T21:07:48.231Z,0.00
2019-03-20T21:10:21.394Z,0.00
2019-03-20T21:12:56.415Z,0.00
2019-03-20T21:15:37.421Z,0.00
2019-03-20T21:18:15.068Z,0.00
2019-03-20T21:20:44.099Z,0.00
2019-03-20T21:23:38.577Z,0.00
2019-03-20T21:26:11.869Z,-0.10
2019-03-20T21:29:02.395Z,0.10
2019-03-20T21:31:34.114Z,0.10
2019-03-20T21:34:22.396Z,0.20
2019-03-20T21:37:28.870Z,0.20
2019-03-20T21:39:57.294Z,0.20
2019-03-20T21:42:51.241Z,0.10
2019-03-20T21:45:34.859Z,0.10
2019-03-20T21:48:03.367Z,-0.10
2019-03-20T21:50:52.971Z,-0.10
2019-03-20T21:53:39.394Z,-0.20
2019-03-20T21:56:30.290Z,-0.20
2019-03-20T21:59:10.789Z,-0.20
2019-03-20T22:02:15.724Z,-0.20
2019-03-20T22:04:44.233Z,-0.20
2019-03-20T22:07:12.830Z,-0.10
2019-03-20T22:09:53.358Z,-0.10
2019-03-20T22:12:45.985Z,-0.10
2019-03-20T22:15:20.336Z,0.00
2019-03-20T22:18:08.521Z,0.00
2019-03-20T22:20:55.258Z,0.10
2019-03-20T22:23:52.306Z,0.10
2019-03-20T22:26:55.964Z,0.10
2019-03-20T22:29:28.108Z,0.00
2019-03-20T22:32:16.202Z,0.00
2019-03-20T22:35:22.439Z,0.00
2019-03-20T22:37:50.911Z,0.00
2019-03-20T22:40:40.687Z,-0.10
2019-03-20T22:43:12.218Z,-0.10
2019-03-20T22:46:08.095Z,-0.10
2019-03-20T22:48:48.729Z,-0.10
2019-03-20T22:51:31.971Z,-0.20
2019-03-20T22:54:36.692Z,-0.20
2019-03-20T22:57:10.861Z,-0.20
2019-03-20T22:59:39.326Z,-0.20
2019-03-20T23:02:19.973Z,-0.10
2019-03-20T23:04:57.710Z,-0.20
2019-03-20T23:07:26.178Z,-0.20
2019-03-20T23:09:54.683Z,-0.20
2019-03-20T23:12:23.248Z,-0.20
2019-03-20T23:14:51.749Z,-0.30
2019-03-20T23:17:22.585Z,-0.30
2019-03-20T23:19:51.160Z,-0.30
2019-03-20T23:22:19.697Z,-0.40
2019-03-20T23:24:48.177Z,-0.40
2019-03-20T23:27:20.086Z,-0.50
2019-03-20T23:29:48.520Z,-0.50
2019-03-20T23:32:17.023Z,-0.60
2019-03-20T23:34:45.487Z,-0.60
2019-03-20T23:37:14.010Z,-0.60
2019-03-20T23:39:42.473Z,-0.60
2019-03-20T23:42:10.987Z,-0.70
2019-03-20T23:44:39.441Z,-0.70
2019-03-20T23:47:08.002Z,-0.80
2019-03-20T23:49:36.575Z,-0.80
2019-03-20T23:52:05.054Z,-0.90
2019-03-20T23:54:36.605Z,-0.90
2019-03-20T23:57:05.081Z,-0.80
2019-03-20T23:59:33.542Z,-0.90
